Time;durP1;ratioP1;P1;durP2;ratioP2;P2;SDS_P1;SDS_P2;PMS_P1;PMS_P2;Temp;Humidity;BMP_temperature;BMP_pressure;BME280_temperature;BME280_humidity;BME280_pressure;Samples;Min_cycle;Max_cycle;Signal;HPM_P1;HPM_P2
2024/02/16 00:01:30;;;;;;;;;;;;;;;;;;5083842;28;19965;-76
2024/02/16 00:03:55;;;;;;;;;;;;;;;;;;5085655;28;19912;-77
2024/02/16 00:06:20;;;;;;;;;;;;;;;;;;5084952;28;19924;-78
2024/02/16 00:08:45;;;;;;;;;;;;;;;;;;5087869;28;19948;-77
2024/02/16 00:11:11;;;;;;;;;;;;;;;;;;5083521;28;19912;-77
2024/02/16 00:13:37;;;;;;;;;;;;;;;;;;5090589;28;20359;-77
2024/02/16 00:16:02;;;;;;;;;;;;;;;;;;5085257;28;19912;-77
2024/02/16 00:18:27;;;;;;;;;;;;;;;;;;5087826;28;19920;-77
2024/02/16 00:20:52;;;;;;;;;;;;;;;;;;5087408;28;19912;-77
2024/02/16 00:23:19;;;;;;;;;;;;;;;;;;5082194;28;19951;-77
2024/02/16 00:25:44;;;;;;;;;;;;;;;;;;5084406;28;19924;-78
2024/02/16 00:28:10;;;;;;;;;;;;;;;;;;5078662;28;20357;-78
2024/02/16 00:30:36;;;;;;;;;;;;;;;;;;5087259;28;20003;-77
2024/02/16 00:33:01;;;;;;;;;;;;;;;;;;5085017;28;19958;-77
2024/02/16 00:35:26;;;;;;;;;;;;;;;;;;5081637;28;19959;-78
2024/02/16 00:37:51;;;;;;;;;;;;;;;;;;5085224;28;20292;-77
2024/02/16 00:40:17;;;;;;;;;;;;;;;;;;5082750;28;19916;-77
2024/02/16 00:42:42;;;;;;;;;;;;;;;;;;5084250;28;19920;-77
2024/02/16 00:45:08;;;;;;;;;;;;;;;;;;5087190;28;19916;-78
2024/02/16 00:47:33;;;;;;;;;;;;;;;;;;5085922;28;19912;-78
2024/02/16 00:49:58;;;;;;;;;;;;;;;;;;5083012;28;20404;-78
2024/02/16 00:52:23;;;;;;;;;;;;;;;;;;5085777;28;20288;-77
2024/02/16 00:54:48;;;;;;;;;;;;;;;;;;5084161;28;19939;-78
2024/02/16 00:57:14;;;;;;;;;;;;;;;;;;5078577;28;20363;-77
2024/02/16 00:59:39;;;;;;;;;;;;;;;;;;5087250;28;20638;-77
2024/02/16 01:02:04;;;;;;;;;;;;;;;;;;5081496;28;19989;-77
2024/02/16 01:04:29;;;;;;;;;;;;;;;;;;5082289;28;20933;-77
2024/02/16 01:06:55;;;;;;;;;;;;;;;;;;5086072;28;19935;-77
2024/02/16 01:09:20;;;;;;;;;;;;;;;;;;5081162;28;20394;-77
2024/02/16 01:11:45;;;;;;;;;;;;;;;;;;5086037;28;19937;-77
2024/02/16 01:14:11;;;;;;;;;;;;;;;;;;5081022;28;19952;-75
2024/02/16 01:16:36;;;;;;;;;;;;;;;;;;5064065;28;20323;-74
2024/02/16 01:19:01;;;;;;;;;;;;;;;;;;5078101;28;20006;-75
2024/02/16 01:21:26;;;;;;;;;;;;;;;;;;5081158;28;19916;-74
2024/02/16 01:23:51;;;;;;;;;;;;;;;;;;5082293;28;19916;-75
2024/02/16 01:26:16;;;;;;;;;;;;;;;;;;5081851;28;19917;-74
2024/02/16 01:28:42;;;;;;;;;;;;;;;;;;5077656;28;19973;-74
2024/02/16 01:31:09;;;;;;;;;;;;;;;;;;5085476;28;20275;-74
2024/02/16 01:33:35;;;;;;;;;;;;;;;;;;5079274;28;20391;-74
2024/02/16 01:36:00;;;;;;;;;;;;;;;;;;5084842;28;19995;-75
2024/02/16 01:38:25;;;;;;;;;;;;;;;;;;5081495;28;19916;-74
2024/02/16 01:40:50;;;;;;;;;;;;;;;;;;5081095;28;20477;-75
2024/02/16 01:43:16;;;;;;;;;;;;;;;;;;5079637;28;20279;-74
2024/02/16 01:45:43;;;;;;;;;;;;;;;;;;5087689;28;20041;-74
2024/02/16 01:48:08;;;;;;;;;;;;;;;;;;5081814;28;19995;-74
2024/02/16 01:50:33;;;;;;;;;;;;;;;;;;5082689;28;19999;-74
2024/02/16 01:52:58;;;;;;;;;;;;;;;;;;5079637;28;20412;-74
2024/02/16 01:55:24;;;;;;;;;;;;;;;;;;5085126;28;19919;-74
2024/02/16 01:57:49;;;;;;;;;;;;;;;;;;5084506;28;23223;-75
2024/02/16 02:00:20;;;;;;;;;;;;;;;;;;5082325;28;19947;-75
2024/02/16 02:02:46;;;;;;;;;;;;;;;;;;5077399;28;19935;-74
2024/02/16 02:05:11;;;;;;;;;;;;;;;;;;5080948;28;19999;-74
2024/02/16 02:07:37;;;;;;;;;;;;;;;;;;5084987;28;19912;-74
2024/02/16 02:10:03;;;;;;;;;;;;;;;;;;5085350;28;19958;-74
2024/02/16 02:12:28;;;;;;;;;;;;;;;;;;5074639;28;19912;-74
2024/02/16 02:14:53;;;;;;;;;;;;;;;;;;5084716;28;19993;-74
2024/02/16 02:17:18;;;;;;;;;;;;;;;;;;5083152;28;19914;-74
2024/02/16 02:19:43;;;;;;;;;;;;;;;;;;5083762;28;19922;-75
2024/02/16 02:22:08;;;;;;;;;;;;;;;;;;5086656;28;19912;-74
2024/02/16 02:24:34;;;;;;;;;;;;;;;;;;5078200;28;19912;-74
2024/02/16 02:26:59;;;;;;;;;;;;;;;;;;5084846;28;20339;-74
2024/02/16 02:29:24;;;;;;;;;;;;;;;;;;5082566;28;20373;-74
2024/02/16 02:31:49;;;;;;;;;;;;;;;;;;5083193;28;19927;-75
2024/02/16 02:34:14;;;;;;;;;;;;;;;;;;5081963;28;19916;-74
2024/02/16 02:36:40;;;;;;;;;;;;;;;;;;5085209;28;19952;-74
2024/02/16 02:39:05;;;;;;;;;;;;;;;;;;5088473;28;20343;-74
2024/02/16 02:41:32;;;;;;;;;;;;;;;;;;5085626;28;19972;-74
2024/02/16 02:43:57;;;;;;;;;;;;;;;;;;5090970;28;20328;-74
2024/02/16 02:46:23;;;;;;;;;;;;;;;;;;5086793;28;20425;-74
2024/02/16 02:48:49;;;;;;;;;;;;;;;;;;5081464;28;19938;-74
2024/02/16 02:51:14;;;;;;;;;;;;;;;;;;5085214;28;19943;-74
2024/02/16 02:53:39;;;;;;;;;;;;;;;;;;5084896;28;19923;-74
2024/02/16 02:56:04;;;;;;;;;;;;;;;;;;5081391;28;19912;-74
2024/02/16 02:58:29;;;;;;;;;;;;;;;;;;5083620;28;20280;-74
2024/02/16 03:00:54;;;;;;;;;;;;;;;;;;5087214;28;19967;-74
2024/02/16 03:03:20;;;;;;;;;;;;;;;;;;5087698;28;19961;-74
2024/02/16 03:05:45;;;;;;;;;;;;;;;;;;5088004;28;19941;-74
2024/02/16 03:08:10;;;;;;;;;;;;;;;;;;5086540;28;20004;-76
2024/02/16 03:10:36;;;;;;;;;;;;;;;;;;5083712;28;19916;-74
2024/02/16 03:13:02;;;;;;;;;;;;;;;;;;5085346;28;20436;-74
2024/02/16 03:15:28;;;;;;;;;;;;;;;;;;5087843;28;19917;-74
2024/02/16 03:17:54;;;;;;;;;;;;;;;;;;5085504;28;19958;-74
2024/02/16 03:20:19;;;;;;;;;;;;;;;;;;5083510;28;19915;-74
2024/02/16 03:22:44;;;;;;;;;;;;;;;;;;5082195;28;19917;-74
2024/02/16 03:25:09;;;;;;;;;;;;;;;;;;5085458;28;20119;-74
2024/02/16 03:27:34;;;;;;;;;;;;;;;;;;5084269;28;19916;-74
2024/02/16 03:30:00;;;;;;;;;;;;;;;;;;5082334;28;20275;-74
2024/02/16 03:32:25;;;;;;;;;;;;;;;;;;5082018;28;19972;-74
2024/02/16 03:34:50;;;;;;;;;;;;;;;;;;5087355;28;19912;-76
2024/02/16 03:37:15;;;;;;;;;;;;;;;;;;5085023;28;20284;-76
2024/02/16 03:39:41;;;;;;;;;;;;;;;;;;5077692;28;20302;-76
2024/02/16 03:42:06;;;;;;;;;;;;;;;;;;5086677;28;19932;-76
2024/02/16 03:44:31;;;;;;;;;;;;;;;;;;5084040;28;20418;-76
2024/02/16 03:46:56;;;;;;;;;;;;;;;;;;5082799;28;19987;-76
2024/02/16 03:49:21;;;;;;;;;;;;;;;;;;5083855;28;19923;-76
2024/02/16 03:51:47;;;;;;;;;;;;;;;;;;5086309;28;19916;-76
2024/02/16 03:54:12;;;;;;;;;;;;;;;;;;5082324;28;19912;-76
2024/02/16 03:56:37;;;;;;;;;;;;;;;;;;5086030;28;19920;-76
2024/02/16 03:59:05;;;;;;;;;;;;;;;;;;5083551;28;19912;-76
2024/02/16 04:01:30;;;;;;;;;;;;;;;;;;5083932;28;19916;-76
2024/02/16 04:03:55;;;;;;;;;;;;;;;;;;5082452;28;19985;-76
2024/02/16 04:06:20;;;;;;;;;;;;;;;;;;5086160;28;19922;-76
2024/02/16 04:08:46;;;;;;;;;;;;;;;;;;5080135;28;19931;-76
2024/02/16 04:11:11;;;;;;;;;;;;;;;;;;5087232;28;19932;-76
2024/02/16 04:13:36;;;;;;;;;;;;;;;;;;5086137;28;20365;-76
2024/02/16 04:16:01;;;;;;;;;;;;;;;;;;5077475;28;20288;-76
2024/02/16 04:18:26;;;;;;;;;;;;;;;;;;5083545;28;20435;-76
2024/02/16 04:20:51;;;;;;;;;;;;;;;;;;5080970;28;19962;-76
2024/02/16 04:23:16;;;;;;;;;;;;;;;;;;5080186;28;19919;-76
2024/02/16 04:25:42;;;;;;;;;;;;;;;;;;5083691;28;20273;-76
2024/02/16 04:28:07;;;;;;;;;;;;;;;;;;5088360;28;20054;-76
2024/02/16 04:30:32;;;;;;;;;;;;;;;;;;5063613;28;19913;-76
2024/02/16 04:32:57;;;;;;;;;;;;;;;;;;5058294;28;20403;-76
2024/02/16 04:35:22;;;;;;;;;;;;;;;;;;5088146;28;19943;-76
2024/02/16 04:37:47;;;;;;;;;;;;;;;;;;5083066;28;20295;-76
2024/02/16 04:40:13;;;;;;;;;;;;;;;;;;5083073;28;19916;-76
2024/02/16 04:42:38;;;;;;;;;;;;;;;;;;5084348;28;19951;-76
2024/02/16 04:45:03;;;;;;;;;;;;;;;;;;5085614;28;19920;-75
2024/02/16 04:47:28;;;;;;;;;;;;;;;;;;5089211;28;19915;-76
2024/02/16 04:49:53;;;;;;;;;;;;;;;;;;5086282;28;19939;-74
2024/02/16 04:52:19;;;;;;;;;;;;;;;;;;5077838;28;19912;-74
2024/02/16 04:54:44;;;;;;;;;;;;;;;;;;5083895;28;19969;-74
2024/02/16 04:57:09;;;;;;;;;;;;;;;;;;5085195;28;19916;-73
2024/02/16 04:59:34;;;;;;;;;;;;;;;;;;5081410;28;19912;-73
2024/02/16 05:01:59;;;;;;;;;;;;;;;;;;5078916;28;19908;-73
2024/02/16 05:04:25;;;;;;;;;;;;;;;;;;5083330;28;19920;-73
2024/02/16 05:06:52;;;;;;;;;;;;;;;;;;5083346;28;19920;-73
2024/02/16 05:09:17;;;;;;;;;;;;;;;;;;5082492;28;20296;-73
2024/02/16 05:11:42;;;;;;;;;;;;;;;;;;5082714;28;20360;-73
2024/02/16 05:14:07;;;;;;;;;;;;;;;;;;5081010;28;19909;-73
2024/02/16 05:16:32;;;;;;;;;;;;;;;;;;5081988;28;20326;-73
2024/02/16 05:18:58;;;;;;;;;;;;;;;;;;5086028;28;19912;-73
2024/02/16 05:21:23;;;;;;;;;;;;;;;;;;5084103;28;19964;-73
2024/02/16 05:23:48;;;;;;;;;;;;;;;;;;5076786;28;19927;-73
2024/02/16 05:26:13;;;;;;;;;;;;;;;;;;5083081;28;20368;-74
2024/02/16 05:28:38;;;;;;;;;;;;;;;;;;5080682;28;20007;-74
2024/02/16 05:31:04;;;;;;;;;;;;;;;;;;5083831;28;19912;-74
2024/02/16 05:33:29;;;;;;;;;;;;;;;;;;5088627;28;20292;-74
2024/02/16 05:35:58;;;;;;;;;;;;;;;;;;5079633;28;20391;-74
2024/02/16 05:38:35;;;;;;;;;;;;;;;;;;5084171;28;19916;-74
2024/02/16 05:41:00;;;;;;;;;;;;;;;;;;5083763;28;20385;-74
2024/02/16 05:43:25;;;;;;;;;;;;;;;;;;5081513;28;19920;-75
2024/02/16 05:45:50;;;;;;;;;;;;;;;;;;5080931;28;19965;-75
2024/02/16 05:48:15;;;;;;;;;;;;;;;;;;5085237;28;20388;-81
2024/02/16 05:50:41;;;;;;;;;;;;;;;;;;5084614;28;19916;-81
2024/02/16 05:53:06;;;;;;;;;;;;;;;;;;5086351;28;19920;-81
2024/02/16 05:55:31;;;;;;;;;;;;;;;;;;5084324;28;19912;-80
2024/02/16 05:57:56;;;;;;;;;;;;;;;;;;5088764;28;20479;-80
2024/02/16 06:00:21;;;;;;;;;;;;;;;;;;5087144;28;19912;-79
2024/02/16 06:02:46;;;;;;;;;;;;;;;;;;5083719;28;20007;-81
2024/02/16 06:05:11;;;;;;;;;;;;;;;;;;5087461;28;19916;-80
2024/02/16 06:07:40;;;;;;;;;;;;;;;;;;5084500;28;19920;-80
2024/02/16 06:10:07;;;;;;;;;;;;;;;;;;5088119;28;19919;-81
2024/02/16 06:12:32;;;;;;;;;;;;;;;;;;5090276;28;19912;-80
2024/02/16 06:14:57;;;;;;;;;;;;;;;;;;5090318;28;20007;-79
2024/02/16 06:17:23;;;;;;;;;;;;;;;;;;5089756;28;19913;-79
2024/02/16 06:19:48;;;;;;;;;;;;;;;;;;5072854;28;20711;-80
2024/02/16 06:22:13;;;;;;;;;;;;;;;;;;5082550;28;19965;-79
2024/02/16 06:24:38;;;;;;;;;;;;;;;;;;5066368;28;20288;-78
2024/02/16 06:27:03;;;;;;;;;;;;;;;;;;5083921;28;19912;-79
2024/02/16 06:29:30;;;;;;;;;;;;;;;;;;5080263;28;19916;-80
2024/02/16 06:31:55;;;;;;;;;;;;;;;;;;5086362;28;19955;-79
2024/02/16 06:34:20;;;;;;;;;;;;;;;;;;5081554;28;20068;-77
2024/02/16 06:36:45;;;;;;;;;;;;;;;;;;5082834;28;19916;-80
2024/02/16 06:39:10;;;;;;;;;;;;;;;;;;5078845;28;19927;-76
2024/02/16 06:41:35;;;;;;;;;;;;;;;;;;5078474;28;20053;-79
2024/02/16 06:44:01;;;;;;;;;;;;;;;;;;5085795;28;19912;-79
2024/02/16 06:46:27;;;;;;;;;;;;;;;;;;5087274;28;20296;-79
2024/02/16 06:48:56;;;;;;;;;;;;;;;;;;5091661;28;19912;-78
2024/02/16 06:51:21;;;;;;;;;;;;;;;;;;5089682;28;19928;-78
2024/02/16 06:53:46;;;;;;;;;;;;;;;;;;5087647;28;19972;-78
2024/02/16 06:56:11;;;;;;;;;;;;;;;;;;5087782;28;19920;-79
2024/02/16 06:58:36;;;;;;;;;;;;;;;;;;5089039;28;20002;-79
2024/02/16 07:01:03;;;;;;;;;;;;;;;;;;5086377;28;19916;-78
2024/02/16 07:03:28;;;;;;;;;;;;;;;;;;5089880;28;19944;-79
2024/02/16 07:05:54;;;;;;;;;;;;;;;;;;5090412;28;19958;-79
2024/02/16 07:08:19;;;;;;;;;;;;;;;;;;5089885;28;20284;-79
2024/02/16 07:10:46;;;;;;;;;;;;;;;;;;5092326;28;20360;-79
2024/02/16 07:13:11;;;;;;;;;;;;;;;;;;5087097;28;20002;-79
2024/02/16 07:15:36;;;;;;;;;;;;;;;;;;5089444;28;20047;-79
2024/02/16 07:18:03;;;;;;;;;;;;;;;;;;5089133;28;19957;-78
2024/02/16 07:20:29;;;;;;;;;;;;;;;;;;5087968;28;19919;-79
2024/02/16 07:22:54;;;;;;;;;;;;;;;;;;5090170;28;19912;-79
2024/02/16 07:25:19;;;;;;;;;;;;;;;;;;5088367;28;19926;-79
2024/02/16 07:27:44;;;;;;;;;;;;;;;;;;5090321;28;19923;-78
2024/02/16 07:30:11;;;;;;;;;;;;;;;;;;5088536;28;19912;-79
2024/02/16 07:32:36;;;;;;;;;;;;;;;;;;5091046;28;19957;-80
2024/02/16 07:35:03;;;;;;;;;;;;;;;;;;5089980;28;19995;-79
2024/02/16 07:37:28;;;;;;;;;;;;;;;;;;5091675;28;20447;-79
2024/02/16 07:39:53;;;;;;;;;;;;;;;;;;5086848;28;19923;-79
2024/02/16 07:42:18;;;;;;;;;;;;;;;;;;5076258;28;19935;-79
2024/02/16 07:44:43;;;;;;;;;;;;;;;;;;5070235;28;20046;-79
2024/02/16 07:47:08;;;;;;;;;;;;;;;;;;5070994;28;19916;-79
2024/02/16 07:49:33;;;;;;;;;;;;;;;;;;5046993;28;19920;-79
2024/02/16 07:51:59;;;;;;;;;;;;;;;;;;5070065;28;19913;-79
2024/02/16 07:54:24;;;;;;;;;;;;;;;;;;5069645;28;19912;-76
2024/02/16 07:56:49;;;;;;;;;;;;;;;;;;5067013;28;21481;-77
2024/02/16 07:59:14;;;;;;;;;;;;;;;;;;5065707;28;19912;-77
2024/02/16 08:01:40;;;;;;;;;;;;;;;;;;5070016;28;19917;-76
2024/02/16 08:04:05;;;;;;;;;;;;;;;;;;5067560;28;20014;-77
2024/02/16 08:06:30;;;;;;;;;;;;;;;;;;5067325;28;19921;-76
2024/02/16 08:08:55;;;;;;;;;;;;;;;;;;5062696;28;20288;-76
2024/02/16 08:11:21;;;;;;;;;;;;;;;;;;5068981;28;19986;-76
2024/02/16 08:13:46;;;;;;;;;;;;;;;;;;5066002;28;19923;-76
2024/02/16 08:16:11;;;;;;;;;;;;;;;;;;5067554;28;19920;-76
2024/02/16 08:18:37;;;;;;;;;;;;;;;;;;5048472;28;20015;-76
2024/02/16 08:21:02;;;;;;;;;;;;;;;;;;5062376;28;19923;-76
2024/02/16 08:23:27;;;;;;;;;;;;;;;;;;5069530;28;19928;-76
2024/02/16 08:25:52;;;;;;;;;;;;;;;;;;5067812;28;19916;-76
2024/02/16 08:28:17;;;;;;;;;;;;;;;;;;5068579;28;19913;-76
2024/02/16 08:30:44;;;;;;;;;;;;;;;;;;5065605;28;19912;-76
2024/02/16 08:33:09;;;;;;;;;;;;;;;;;;5067581;28;19912;-76
2024/02/16 08:35:34;;;;;;;;;;;;;;;;;;5068889;28;19912;-76
2024/02/16 08:37:59;;;;;;;;;;;;;;;;;;5065955;28;19912;-76
2024/02/16 08:40:24;;;;;;;;;;;;;;;;;;5069229;28;19923;-76
2024/02/16 08:42:50;;;;;;;;;;;;;;;;;;5084471;28;20344;-77
2024/02/16 08:45:17;;;;;;;;;;;;;;;;;;5082270;28;19923;-77
2024/02/16 08:47:42;;;;;;;;;;;;;;;;;;5085619;28;20428;-76
2024/02/16 08:50:07;;;;;;;;;;;;;;;;;;5087308;28;20045;-77
2024/02/16 08:52:32;;;;;;;;;;;;;;;;;;5088227;28;19912;-76
2024/02/16 08:54:57;;;;;;;;;;;;;;;;;;5067313;28;19998;-76
2024/02/16 08:57:23;;;;;;;;;;;;;;;;;;5089059;28;19920;-76
2024/02/16 08:59:48;;;;;;;;;;;;;;;;;;5087903;28;19912;-77
2024/02/16 09:02:14;;;;;;;;;;;;;;;;;;5089249;28;19998;-76
2024/02/16 09:04:40;;;;;;;;;;;;;;;;;;5082339;28;20318;-77
2024/02/16 09:07:05;;;;;;;;;;;;;;;;;;5083824;28;19912;-76
2024/02/16 09:09:30;;;;;;;;;;;;;;;;;;5083136;28;19966;-74
2024/02/16 09:11:56;;;;;;;;;;;;;;;;;;5087739;28;19924;-74
2024/02/16 09:14:21;;;;;;;;;;;;;;;;;;5081841;28;20668;-74
2024/02/16 09:16:46;;;;;;;;;;;;;;;;;;5087468;28;20002;-75
2024/02/16 09:19:11;;;;;;;;;;;;;;;;;;5083581;28;19920;-75
2024/02/16 09:21:36;;;;;;;;;;;;;;;;;;5088304;28;19916;-75
2024/02/16 09:24:03;;;;;;;;;;;;;;;;;;5085358;28;19916;-75
2024/02/16 09:26:33;;;;;;;;;;;;;;;;;;5086832;28;20427;-75
2024/02/16 09:28:58;;;;;;;;;;;;;;;;;;5080695;28;19919;-75
2024/02/16 09:31:23;;;;;;;;;;;;;;;;;;5088306;28;19912;-76
2024/02/16 09:33:51;;;;;;;;;;;;;;;;;;5084181;28;20028;-75
2024/02/16 09:36:16;;;;;;;;;;;;;;;;;;5087414;28;19919;-75
2024/02/16 09:38:42;;;;;;;;;;;;;;;;;;5088015;28;19912;-75
2024/02/16 09:41:07;;;;;;;;;;;;;;;;;;5086673;28;19924;-75
2024/02/16 09:43:32;;;;;;;;;;;;;;;;;;5089541;28;20022;-74
2024/02/16 09:45:57;;;;;;;;;;;;;;;;;;5089522;28;19916;-75
2024/02/16 09:48:23;;;;;;;;;;;;;;;;;;5092854;28;19912;-75
2024/02/16 09:50:48;;;;;;;;;;;;;;;;;;5091665;28;19958;-75
2024/02/16 09:53:13;;;;;;;;;;;;;;;;;;5092841;28;19923;-75
2024/02/16 09:55:38;;;;;;;;;;;;;;;;;;5092192;28;19908;-75
2024/02/16 09:58:04;;;;;;;;;;;;;;;;;;5090358;28;19993;-75
2024/02/16 10:00:30;;;;;;;;;;;;;;;;;;5085214;28;19916;-74
2024/02/16 10:02:55;;;;;;;;;;;;;;;;;;5070844;28;19918;-75
2024/02/16 10:05:20;;;;;;;;;;;;;;;;;;5085740;28;20013;-75
2024/02/16 10:07:45;;;;;;;;;;;;;;;;;;5089629;28;20355;-73
2024/02/16 10:10:10;;;;;;;;;;;;;;;;;;5089749;28;20380;-75
2024/02/16 10:12:35;;;;;;;;;;;;;;;;;;5091975;28;19927;-74
2024/02/16 10:15:04;;;;;;;;;;;;;;;;;;5086256;28;19998;-75
2024/02/16 10:17:29;;;;;;;;;;;;;;;;;;5088017;28;19912;-75
2024/02/16 10:19:54;;;;;;;;;;;;;;;;;;5087088;28;20368;-75
2024/02/16 10:22:20;;;;;;;;;;;;;;;;;;5090246;28;19912;-75
2024/02/16 10:24:46;;;;;;;;;;;;;;;;;;5088774;28;19912;-75
2024/02/16 10:27:11;;;;;;;;;;;;;;;;;;5092702;28;20265;-78
2024/02/16 10:29:36;;;;;;;;;;;;;;;;;;5088500;28;19912;-74
2024/02/16 10:32:01;;;;;;;;;;;;;;;;;;5086909;28;19966;-73
2024/02/16 10:34:26;;;;;;;;;;;;;;;;;;5087552;28;19948;-74
2024/02/16 10:36:52;;;;;;;;;;;;;;;;;;5098427;28;19942;-73
2024/02/16 10:39:18;;;;;;;;;;;;;;;;;;5090913;28;19912;-73
2024/02/16 10:41:43;;;;;;;;;;;;;;;;;;5086139;28;19928;-73
2024/02/16 10:44:08;;;;;;;;;;;;;;;;;;5088518;28;19919;-74
2024/02/16 10:46:33;;;;;;;;;;;;;;;;;;5089562;28;19961;-73
2024/02/16 10:48:58;;;;;;;;;;;;;;;;;;5081387;28;20007;-73
2024/02/16 10:51:24;;;;;;;;;;;;;;;;;;5088875;28;19912;-74
2024/02/16 10:53:49;;;;;;;;;;;;;;;;;;5085656;28;19920;-74
2024/02/16 10:56:14;;;;;;;;;;;;;;;;;;5090506;28;20415;-74
2024/02/16 10:58:40;;;;;;;;;;;;;;;;;;5091967;28;19933;-73
2024/02/16 11:01:05;;;;;;;;;;;;;;;;;;5087365;28;20375;-73
2024/02/16 11:03:30;;;;;;;;;;;;;;;;;;5091382;28;19916;-73
2024/02/16 11:05:57;;;;;;;;;;;;;;;;;;5082349;28;20007;-74
2024/02/16 11:08:22;;;;;;;;;;;;;;;;;;5082852;28;19912;-73
2024/02/16 11:10:48;;;;;;;;;;;;;;;;;;5087712;28;19919;-73
2024/02/16 11:13:13;;;;;;;;;;;;;;;;;;5081741;28;19922;-73
2024/02/16 11:15:38;;;;;;;;;;;;;;;;;;5085445;28;19955;-73
2024/02/16 11:18:03;;;;;;;;;;;;;;;;;;5082886;28;19966;-74
2024/02/16 11:20:28;;;;;;;;;;;;;;;;;;5084714;28;19912;-73
2024/02/16 11:22:53;;;;;;;;;;;;;;;;;;5090209;28;19959;-73
2024/02/16 11:25:20;;;;;;;;;;;;;;;;;;5088893;28;19995;-73
2024/02/16 11:27:45;;;;;;;;;;;;;;;;;;5080867;28;19947;-73
2024/02/16 11:30:10;;;;;;;;;;;;;;;;;;5085988;28;19947;-73
2024/02/16 11:32:36;;;;;;;;;;;;;;;;;;5081655;28;19920;-73
2024/02/16 11:35:01;;;;;;;;;;;;;;;;;;5081800;28;19956;-73
2024/02/16 11:37:26;;;;;;;;;;;;;;;;;;5082184;28;20003;-78
2024/02/16 11:39:51;;;;;;;;;;;;;;;;;;5088187;28;20461;-78
2024/02/16 11:42:16;;;;;;;;;;;;;;;;;;5078801;28;20497;-79
2024/02/16 11:44:42;;;;;;;;;;;;;;;;;;5086943;28;19946;-78
2024/02/16 11:47:12;;;;;;;;;;;;;;;;;;5081916;28;20654;-78
2024/02/16 11:49:37;;;;;;;;;;;;;;;;;;5082029;28;19916;-76
2024/02/16 11:52:03;;;;;;;;;;;;;;;;;;5090505;28;19981;-78
2024/02/16 11:54:29;;;;;;;;;;;;;;;;;;5086083;28;19912;-76
2024/02/16 11:56:54;;;;;;;;;;;;;;;;;;5088744;28;19912;-78
2024/02/16 11:59:19;;;;;;;;;;;;;;;;;;5084484;28;20135;-77
2024/02/16 12:01:45;;;;;;;;;;;;;;;;;;5084911;28;19947;-78
2024/02/16 12:04:10;;;;;;;;;;;;;;;;;;5085567;28;19999;-77
2024/02/16 12:06:35;;;;;;;;;;;;;;;;;;5088836;28;19919;-79
2024/02/16 12:09:00;;;;;;;;;;;;;;;;;;5083736;28;19920;-79
2024/02/16 12:11:25;;;;;;;;;;;;;;;;;;5086157;28;19923;-78
2024/02/16 12:13:50;;;;;;;;;;;;;;;;;;5088884;28;20000;-75
2024/02/16 12:16:15;;;;;;;;;;;;;;;;;;5087595;28;20253;-78
2024/02/16 12:18:41;;;;;;;;;;;;;;;;;;5082444;28;20391;-79
2024/02/16 12:21:06;;;;;;;;;;;;;;;;;;5082616;28;19947;-79
2024/02/16 12:23:31;;;;;;;;;;;;;;;;;;5078797;28;19912;-79
2024/02/16 12:25:56;;;;;;;;;;;;;;;;;;5081487;28;19923;-78
2024/02/16 12:28:21;;;;;;;;;;;;;;;;;;5088748;28;19912;-79
2024/02/16 12:30:47;;;;;;;;;;;;;;;;;;5088633;28;19916;-79
2024/02/16 12:33:12;;;;;;;;;;;;;;;;;;5088328;28;19976;-77
2024/02/16 12:35:37;;;;;;;;;;;;;;;;;;5086549;28;19917;-78
2024/02/16 12:38:02;;;;;;;;;;;;;;;;;;5086733;28;19912;-78
2024/02/16 12:40:29;;;;;;;;;;;;;;;;;;5085115;28;19920;-77
2024/02/16 12:42:54;;;;;;;;;;;;;;;;;;5078977;28;19920;-76
2024/02/16 12:45:19;;;;;;;;;;;;;;;;;;5089003;28;19916;-76
2024/02/16 12:47:45;;;;;;;;;;;;;;;;;;5089377;28;19922;-76
2024/02/16 12:50:10;;;;;;;;;;;;;;;;;;5083171;28;19920;-76
2024/02/16 12:52:38;;;;;;;;;;;;;;;;;;5081985;28;20541;-74
2024/02/16 12:55:03;;;;;;;;;;;;;;;;;;5079543;28;19912;-75
2024/02/16 12:57:29;;;;;;;;;;;;;;;;;;5079855;28;19920;-75
2024/02/16 12:59:54;;;;;;;;;;;;;;;;;;5080486;28;20015;-74
2024/02/16 13:02:19;;;;;;;;;;;;;;;;;;5080424;28;19916;-74
2024/02/16 13:04:44;;;;;;;;;;;;;;;;;;5081666;28;20440;-74
2024/02/16 13:07:09;;;;;;;;;;;;;;;;;;5080510;28;19913;-74
2024/02/16 13:09:34;;;;;;;;;;;;;;;;;;5086827;28;19964;-74
2024/02/16 13:11:59;;;;;;;;;;;;;;;;;;5086558;28;20054;-74
2024/02/16 13:14:25;;;;;;;;;;;;;;;;;;5087298;28;20403;-74
2024/02/16 13:16:50;;;;;;;;;;;;;;;;;;5086765;28;19920;-74
2024/02/16 13:19:17;;;;;;;;;;;;;;;;;;5083929;28;19985;-74
2024/02/16 13:21:42;;;;;;;;;;;;;;;;;;5082591;28;20011;-75
2024/02/16 13:24:08;;;;;;;;;;;;;;;;;;5088217;28;20121;-75
2024/02/16 13:26:33;;;;;;;;;;;;;;;;;;5082951;28;20004;-74
2024/02/16 13:28:58;;;;;;;;;;;;;;;;;;5089721;28;19912;-74
2024/02/16 13:31:23;;;;;;;;;;;;;;;;;;5088427;28;19916;-75
2024/02/16 13:33:48;;;;;;;;;;;;;;;;;;5089636;28;19916;-74
2024/02/16 13:36:14;;;;;;;;;;;;;;;;;;5089221;28;19918;-74
2024/02/16 13:38:39;;;;;;;;;;;;;;;;;;5089827;28;19919;-74
2024/02/16 13:41:04;;;;;;;;;;;;;;;;;;5088799;28;19920;-74
2024/02/16 13:43:30;;;;;;;;;;;;;;;;;;5083751;28;19939;-75
2024/02/16 13:45:57;;;;;;;;;;;;;;;;;;5062716;28;19920;-74
2024/02/16 13:48:22;;;;;;;;;;;;;;;;;;5083251;28;19934;-75
2024/02/16 13:50:48;;;;;;;;;;;;;;;;;;5081643;28;19946;-75
2024/02/16 13:53:13;;;;;;;;;;;;;;;;;;5080008;28;19958;-74
2024/02/16 13:55:38;;;;;;;;;;;;;;;;;;5083697;28;20459;-75
2024/02/16 13:58:03;;;;;;;;;;;;;;;;;;5080240;28;19916;-73
2024/02/16 14:00:29;;;;;;;;;;;;;;;;;;5082718;28;20007;-74
2024/02/16 14:02:54;;;;;;;;;;;;;;;;;;5072385;28;19962;-73
2024/02/16 14:05:19;;;;;;;;;;;;;;;;;;5084042;28;19923;-73
2024/02/16 14:07:44;;;;;;;;;;;;;;;;;;5079115;28;19923;-73
2024/02/16 14:10:09;;;;;;;;;;;;;;;;;;5080758;28;19912;-73
2024/02/16 14:12:34;;;;;;;;;;;;;;;;;;5063490;28;19913;-73
2024/02/16 14:14:59;;;;;;;;;;;;;;;;;;5079555;28;20007;-73
2024/02/16 14:17:25;;;;;;;;;;;;;;;;;;5081646;28;19912;-73
2024/02/16 14:19:50;;;;;;;;;;;;;;;;;;5078431;28;19920;-73
2024/02/16 14:22:15;;;;;;;;;;;;;;;;;;5079341;28;19917;-73
2024/02/16 14:24:40;;;;;;;;;;;;;;;;;;5079125;28;19928;-73
2024/02/16 14:27:05;;;;;;;;;;;;;;;;;;5076718;28;19920;-73
2024/02/16 14:29:30;;;;;;;;;;;;;;;;;;5078430;28;19915;-74
2024/02/16 14:31:55;;;;;;;;;;;;;;;;;;5084918;28;19927;-73
2024/02/16 14:34:21;;;;;;;;;;;;;;;;;;5082932;28;19924;-73
2024/02/16 14:36:46;;;;;;;;;;;;;;;;;;5081595;28;19912;-73
2024/02/16 14:39:12;;;;;;;;;;;;;;;;;;5087388;28;19912;-73
2024/02/16 14:41:37;;;;;;;;;;;;;;;;;;5083357;28;19924;-73
2024/02/16 14:44:03;;;;;;;;;;;;;;;;;;5083537;28;19912;-74
2024/02/16 14:46:28;;;;;;;;;;;;;;;;;;5080481;28;19943;-72
2024/02/16 14:48:53;;;;;;;;;;;;;;;;;;5081863;28;19916;-73
2024/02/16 14:51:18;;;;;;;;;;;;;;;;;;5083236;28;19916;-74
2024/02/16 14:53:44;;;;;;;;;;;;;;;;;;5086513;28;20257;-73
2024/02/16 14:56:09;;;;;;;;;;;;;;;;;;5089404;28;19954;-73
2024/02/16 14:58:34;;;;;;;;;;;;;;;;;;5091830;28;19916;-72
2024/02/16 15:01:00;;;;;;;;;;;;;;;;;;5087123;28;20001;-72
2024/02/16 15:03:27;;;;;;;;;;;;;;;;;;5086566;28;19966;-74
2024/02/16 15:05:52;;;;;;;;;;;;;;;;;;5090543;28;19920;-73
2024/02/16 15:08:17;;;;;;;;;;;;;;;;;;5081853;28;19919;-74
2024/02/16 15:10:43;;;;;;;;;;;;;;;;;;5088048;28;19919;-74
2024/02/16 15:13:09;;;;;;;;;;;;;;;;;;5084976;28;20021;-75
2024/02/16 15:15:34;;;;;;;;;;;;;;;;;;5090095;28;19916;-74
2024/02/16 15:18:04;;;;;;;;;;;;;;;;;;5085048;28;19920;-74
2024/02/16 15:20:29;;;;;;;;;;;;;;;;;;5084830;28;19918;-75
2024/02/16 15:22:55;;;;;;;;;;;;;;;;;;5080963;28;19913;-75
2024/02/16 15:25:21;;;;;;;;;;;;;;;;;;5082422;28;20031;-75
2024/02/16 15:27:46;;;;;;;;;;;;;;;;;;5085356;28;20011;-75
2024/02/16 15:30:11;;;;;;;;;;;;;;;;;;5086695;28;19912;-75
2024/02/16 15:32:37;;;;;;;;;;;;;;;;;;5083571;28;19998;-75
2024/02/16 15:35:02;;;;;;;;;;;;;;;;;;5087996;28;19912;-74
2024/02/16 15:37:27;;;;;;;;;;;;;;;;;;5086080;28;19916;-74
2024/02/16 15:39:56;;;;;;;;;;;;;;;;;;5082557;28;19912;-74
2024/02/16 15:42:21;;;;;;;;;;;;;;;;;;5082032;28;20424;-75
2024/02/16 15:44:46;;;;;;;;;;;;;;;;;;5082493;28;20011;-75
2024/02/16 15:47:11;;;;;;;;;;;;;;;;;;5081735;28;19924;-75
2024/02/16 15:49:37;;;;;;;;;;;;;;;;;;5082042;28;20301;-74
2024/02/16 15:52:03;;;;;;;;;;;;;;;;;;5078325;28;20308;-74
2024/02/16 15:54:28;;;;;;;;;;;;;;;;;;5084205;28;19919;-74
2024/02/16 15:56:53;;;;;;;;;;;;;;;;;;5082010;28;20010;-74
2024/02/16 15:59:19;;;;;;;;;;;;;;;;;;5081882;28;19912;-74
2024/02/16 16:01:44;;;;;;;;;;;;;;;;;;5080029;28;20391;-75
2024/02/16 16:04:10;;;;;;;;;;;;;;;;;;5081024;28;19920;-75
2024/02/16 16:06:35;;;;;;;;;;;;;;;;;;5082684;28;20006;-74
2024/02/16 16:09:03;;;;;;;;;;;;;;;;;;5088964;28;19916;-75
2024/02/16 16:11:28;;;;;;;;;;;;;;;;;;5086635;28;19920;-75
2024/02/16 16:13:53;;;;;;;;;;;;;;;;;;5090586;28;20300;-75
2024/02/16 16:16:18;;;;;;;;;;;;;;;;;;5089352;28;19948;-75
2024/02/16 16:18:44;;;;;;;;;;;;;;;;;;5090178;28;19912;-73
2024/02/16 16:21:09;;;;;;;;;;;;;;;;;;5081871;28;19912;-73
2024/02/16 16:23:35;;;;;;;;;;;;;;;;;;5090501;28;19916;-73
2024/02/16 16:26:00;;;;;;;;;;;;;;;;;;5088308;28;19963;-73
2024/02/16 16:28:25;;;;;;;;;;;;;;;;;;5084087;28;19912;-73
2024/02/16 16:30:51;;;;;;;;;;;;;;;;;;5085274;28;21912;-73
2024/02/16 16:33:16;;;;;;;;;;;;;;;;;;5083152;28;19912;-73